Terminal Aerodrome Forecast
Issued by NWS

Home | Current Version | Previous Version | Text Only | Print | Product List | Glossary On
Versions: 1 2 3 4 5 6 7 8 9 10 11 12 13 14 15 16 17 18 19
000
FTUS41 KPBZ 270200 AAB
TAFMGW
TAF AMD
KMGW 270201Z 2702/2724 32005KT P6SM -SHRA SCT015 OVC025
     FM270300 34005KT P6SM OVC015
     FM271500 31008KT P6SM BKN025
     FM271800 32008KT P6SM BKN035=

USA.gov is the U.S. government's official web portal to all federal, state and local government web resources and services.